Time;durP1;ratioP1;P1;durP2;ratioP2;P2;SDS_P1;SDS_P2;PMS_P1;PMS_P2;Temp;Humidity;BMP_temperature;BMP_pressure;BME280_temperature;BME280_humidity;BME280_pressure;Samples;Min_cycle;Max_cycle;Signal;HPM_P1;HPM_P2
2021/04/29 00:01:58;;;;;;;17.20;12.17;;;9.20;71.00;;;;;;5112510;28;20043;-70
2021/04/29 00:04:24;;;;;;;14.70;11.30;;;9.20;70.80;;;;;;5112323;28;20492;-70
2021/04/29 00:06:49;;;;;;;15.20;12.20;;;9.20;71.00;;;;;;5112584;28;20054;-70
2021/04/29 00:09:15;;;;;;;17.90;12.83;;;9.20;71.40;;;;;;5113176;28;20047;-70
2021/04/29 00:11:41;;;;;;;16.40;12.37;;;9.10;71.30;;;;;;5112014;28;20096;-70
2021/04/29 00:14:10;;;;;;;15.20;11.27;;;9.00;71.20;;;;;;5112645;28;20048;-70
2021/04/29 00:16:37;;;;;;;17.57;12.67;;;9.00;71.50;;;;;;5112871;27;20446;-70
2021/04/29 00:19:03;;;;;;;19.17;11.97;;;8.90;71.30;;;;;;5110840;28;20309;-70
2021/04/29 00:21:29;;;;;;;15.03;11.90;;;8.90;71.30;;;;;;5112625;28;20641;-69
2021/04/29 00:23:55;;;;;;;17.40;13.10;;;8.80;71.60;;;;;;5112279;28;20293;-69
2021/04/29 00:26:21;;;;;;;16.73;13.10;;;8.80;71.50;;;;;;5111832;28;20516;-68
2021/04/29 00:28:46;;;;;;;15.67;12.23;;;8.80;71.70;;;;;;5112381;28;20168;-70
2021/04/29 00:31:12;;;;;;;16.73;12.73;;;8.80;71.70;;;;;;5112298;28;20099;-70
2021/04/29 00:33:38;;;;;;;18.67;13.73;;;8.80;72.00;;;;;;5111784;28;20052;-70
2021/04/29 00:36:04;;;;;;;16.23;13.03;;;8.70;72.10;;;;;;5111549;28;20047;-70
2021/04/29 00:38:30;;;;;;;20.17;14.03;;;8.80;72.50;;;;;;5111857;28;20062;-70
2021/04/29 00:40:57;;;;;;;19.23;14.80;;;8.70;72.40;;;;;;5111984;28;20297;-70
2021/04/29 00:43:23;;;;;;;20.23;13.10;;;8.80;72.80;;;;;;5112557;28;20350;-70
2021/04/29 00:45:49;;;;;;;18.03;14.40;;;8.80;72.90;;;;;;5111333;28;20294;-70
2021/04/29 00:48:15;;;;;;;18.83;13.80;;;8.80;72.80;;;;;;5111980;28;20506;-70
2021/04/29 00:50:40;;;;;;;18.83;13.43;;;8.80;73.10;;;;;;5111902;28;20294;-70
2021/04/29 00:53:06;;;;;;;21.03;15.33;;;8.90;73.40;;;;;;5111403;28;20460;-70
2021/04/29 00:55:35;;;;;;;18.47;15.57;;;8.90;73.40;;;;;;5112024;28;20051;-70
2021/04/29 00:58:07;;;;;;;19.93;14.33;;;8.90;73.40;;;;;;5111845;28;20048;-70
2021/04/29 01:00:34;;;;;;;21.40;14.90;;;8.90;73.60;;;;;;5111481;28;20319;-70
2021/04/29 01:03:17;;;;;;;18.70;13.23;;;9.00;73.90;;;;;;5111662;28;21064;-69
2021/04/29 01:05:55;;;;;;;19.63;13.37;;;9.00;75.10;;;;;;5111916;28;20313;-70
2021/04/29 01:09:02;;;;;;;19.20;15.23;;;9.00;74.10;;;;;;5111290;28;20650;-69
2021/04/29 01:11:33;;;;;;;16.40;13.27;;;9.00;74.10;;;;;;5110278;28;20324;-69
2021/04/29 01:14:03;;;;;;;16.83;14.40;;;9.00;73.90;;;;;;5110850;28;20383;-69
2021/04/29 01:16:30;;;;;;;19.30;15.07;;;9.00;74.20;;;;;;5112030;28;20384;-69
2021/04/29 01:18:56;;;;;;;17.87;14.03;;;9.00;74.30;;;;;;5111353;28;20389;-70
2021/04/29 01:21:27;;;;;;;17.67;14.83;;;9.00;74.40;;;;;;5111150;28;20298;-69
2021/04/29 01:23:56;;;;;;;17.27;15.10;;;9.00;75.30;;;;;;5111567;28;20308;-69
2021/04/29 01:26:36;;;;;;;21.67;14.97;;;9.00;74.60;;;;;;5111996;28;20292;-69
2021/04/29 01:29:13;;;;;;;19.10;14.87;;;9.00;74.90;;;;;;5110741;28;20294;-69
2021/04/29 01:31:43;;;;;;;20.20;15.17;;;8.90;75.00;;;;;;5113109;28;20781;-69
2021/04/29 01:34:13;;;;;;;18.93;15.40;;;8.90;74.90;;;;;;5115366;28;20329;-69
2021/04/29 01:36:40;;;;;;;23.30;15.67;;;8.90;75.00;;;;;;5114824;28;20781;-69
2021/04/29 01:39:10;;;;;;;25.00;16.87;;;8.90;75.00;;;;;;5115596;28;20313;-69
2021/04/29 01:41:38;;;;;;;22.60;16.07;;;8.80;75.40;;;;;;5115855;28;20289;-69
2021/04/29 01:44:08;;;;;;;17.00;13.07;;;8.80;75.40;;;;;;5114915;28;20293;-69
2021/04/29 01:46:35;;;;;;;18.73;16.10;;;8.90;75.40;;;;;;5115797;28;20298;-69
2021/04/29 01:49:03;;;;;;;21.67;16.63;;;8.90;75.40;;;;;;5114180;28;20293;-69
2021/04/29 01:51:29;;;;;;;19.87;15.10;;;8.90;76.30;;;;;;5115781;28;20368;-68
2021/04/29 01:53:55;;;;;;;21.73;16.63;;;8.90;75.60;;;;;;5115025;28;20292;-69
2021/04/29 01:56:21;;;;;;;20.97;16.77;;;8.90;75.80;;;;;;5114857;28;20305;-69
2021/04/29 01:58:47;;;;;;;20.73;15.67;;;8.90;75.50;;;;;;5115129;28;20373;-69
2021/04/29 02:01:13;;;;;;;18.73;14.07;;;8.90;75.30;;;;;;5115088;28;20342;-69
2021/04/29 02:03:39;;;;;;;18.97;14.77;;;9.00;75.40;;;;;;5114491;28;20142;-69
2021/04/29 02:06:05;;;;;;;21.23;15.17;;;8.90;75.60;;;;;;5114634;28;20508;-69
2021/04/29 02:08:31;;;;;;;21.03;15.40;;;8.90;75.50;;;;;;5115474;28;20293;-69
2021/04/29 02:10:59;;;;;;;20.40;16.43;;;9.00;76.40;;;;;;5113824;28;20563;-69
2021/04/29 02:13:28;;;;;;;23.53;16.63;;;8.90;76.40;;;;;;5115247;28;20426;-69
2021/04/29 02:15:59;;;;;;;23.20;16.67;;;8.90;76.10;;;;;;5114583;28;20290;-69
2021/04/29 02:18:26;;;;;;;21.43;14.93;;;8.90;76.20;;;;;;5114472;28;20313;-69
2021/04/29 02:20:53;;;;;;;25.40;18.03;;;8.90;76.10;;;;;;5114828;28;20334;-70
2021/04/29 02:23:23;;;;;;;23.03;19.10;;;8.90;76.10;;;;;;5114928;28;20305;-69
2021/04/29 02:25:52;;;;;;;23.83;17.90;;;8.90;76.10;;;;;;5113859;28;20301;-69
2021/04/29 02:28:18;;;;;;;23.90;18.27;;;8.90;76.00;;;;;;5114556;28;20316;-70
2021/04/29 02:30:45;;;;;;;30.47;18.03;;;9.00;76.00;;;;;;5114461;28;20297;-69
2021/04/29 02:33:11;;;;;;;21.63;17.37;;;9.00;76.10;;;;;;5113727;28;20763;-69
2021/04/29 02:35:37;;;;;;;21.70;18.40;;;9.00;76.00;;;;;;5114984;28;20321;-70
2021/04/29 02:38:04;;;;;;;23.67;18.83;;;9.00;76.00;;;;;;5113198;28;20062;-70
2021/04/29 02:40:30;;;;;;;24.33;18.40;;;9.00;76.00;;;;;;5114677;28;20294;-69
2021/04/29 02:42:57;;;;;;;24.53;19.17;;;9.00;76.10;;;;;;5113339;28;20380;-70
2021/04/29 02:45:23;;;;;;;31.77;18.77;;;9.00;76.30;;;;;;5114091;28;20293;-69
2021/04/29 02:47:52;;;;;;;26.17;19.33;;;8.90;76.50;;;;;;5114362;28;20369;-69
2021/04/29 02:50:20;;;;;;;21.70;19.30;;;8.80;76.80;;;;;;5114227;28;20351;-69
2021/04/29 02:52:48;;;;;;;20.33;17.17;;;8.80;76.80;;;;;;5113389;28;20372;-69
2021/04/29 02:55:15;;;;;;;26.73;21.13;;;8.80;76.90;;;;;;5114063;28;20354;-69
2021/04/29 02:57:40;;;;;;;25.77;19.63;;;8.80;76.90;;;;;;5114020;28;20302;-69
2021/04/29 03:00:10;;;;;;;24.83;19.83;;;8.80;77.00;;;;;;5113340;28;20313;-69
2021/04/29 03:02:39;;;;;;;25.73;20.93;;;8.80;77.20;;;;;;5114116;28;20454;-70
2021/04/29 03:05:12;;;;;;;25.73;20.83;;;8.80;77.30;;;;;;5113565;28;20351;-69
2021/04/29 03:07:39;;;;;;;25.17;21.70;;;8.90;77.80;;;;;;5113270;28;20354;-69
2021/04/29 03:10:10;;;;;;;23.80;20.43;;;8.90;77.80;;;;;;5113438;28;20301;-68
2021/04/29 03:12:37;;;;;;;24.77;19.90;;;8.80;78.20;;;;;;5114281;28;20289;-68
2021/04/29 03:15:05;;;;;;;24.43;20.57;;;8.80;78.30;;;;;;5112822;28;20044;-69
2021/04/29 03:17:31;;;;;;;28.90;21.60;;;8.80;78.70;;;;;;5113880;28;20293;-69
2021/04/29 03:19:57;;;;;;;24.23;20.57;;;8.80;78.60;;;;;;5113307;28;20381;-69
2021/04/29 03:22:22;;;;;;;26.03;20.13;;;8.70;79.00;;;;;;5113055;28;20684;-70
2021/04/29 03:24:49;;;;;;;27.17;22.10;;;8.70;79.40;;;;;;5113432;28;20070;-69
2021/04/29 03:27:16;;;;;;;27.00;20.87;;;8.70;79.40;;;;;;5112966;28;20044;-69
2021/04/29 03:29:41;;;;;;;28.57;20.83;;;8.70;79.40;;;;;;5113608;28;20327;-70
2021/04/29 03:32:07;;;;;;;26.53;22.57;;;8.60;79.60;;;;;;5113444;28;20297;-70
2021/04/29 03:34:33;;;;;;;30.87;22.27;;;8.60;79.80;;;;;;5112941;28;20442;-69
2021/04/29 03:36:58;;;;;;;25.17;22.30;;;8.50;79.90;;;;;;5112904;28;20047;-70
2021/04/29 03:39:24;;;;;;;27.33;22.77;;;8.60;80.10;;;;;;5113265;28;20075;-69
2021/04/29 03:41:50;;;;;;;26.57;22.67;;;8.50;80.50;;;;;;5112439;28;20134;-69
2021/04/29 03:44:15;;;;;;;25.07;20.87;;;8.50;80.50;;;;;;5113311;28;20055;-69
2021/04/29 03:46:41;;;;;;;26.50;22.33;;;8.50;81.00;;;;;;5113187;28;20100;-69
2021/04/29 03:49:07;;;;;;;26.50;22.57;;;8.50;81.10;;;;;;5112332;28;20293;-70
2021/04/29 03:51:33;;;;;;;23.10;19.73;;;8.40;80.90;;;;;;5113129;28;20074;-69
2021/04/29 03:53:59;;;;;;;24.10;21.53;;;8.50;81.10;;;;;;5111795;28;20119;-69
2021/04/29 03:56:24;;;;;;;27.50;21.10;;;8.50;81.20;;;;;;5112542;28;20040;-69
2021/04/29 03:58:50;;;;;;;29.90;21.23;;;8.40;81.60;;;;;;5112903;28;20047;-70
2021/04/29 04:01:16;;;;;;;25.87;22.17;;;8.40;81.90;;;;;;5112891;28;20143;-69
2021/04/29 04:03:41;;;;;;;25.70;22.67;;;8.50;81.60;;;;;;5112133;28;20039;-69
2021/04/29 04:06:08;;;;;;;29.47;22.67;;;8.40;82.40;;;;;;5112517;28;20523;-70
2021/04/29 04:08:33;;;;;;;26.70;21.37;;;8.40;82.60;;;;;;5112840;28;20059;-69
2021/04/29 04:10:59;;;;;;;23.67;20.30;;;8.40;82.20;;;;;;5111632;28;20286;-69
2021/04/29 04:13:25;;;;;;;26.07;20.43;;;8.40;82.20;;;;;;5112936;28;20071;-69
2021/04/29 04:15:51;;;;;;;25.67;20.43;;;8.50;82.10;;;;;;5112513;28;20134;-69
2021/04/29 04:18:16;;;;;;;25.30;19.83;;;8.50;82.40;;;;;;5111709;28;20040;-69
2021/04/29 04:20:43;;;;;;;25.63;21.20;;;8.50;82.30;;;;;;5112624;28;20052;-70
2021/04/29 04:23:09;;;;;;;26.27;21.07;;;8.50;83.60;;;;;;5112144;28;20454;-69
2021/04/29 04:25:35;;;;;;;26.77;21.27;;;8.50;82.60;;;;;;5112214;28;20290;-69
2021/04/29 04:28:01;;;;;;;27.37;20.77;;;8.50;82.50;;;;;;5111994;28;20692;-69
2021/04/29 04:30:28;;;;;;;27.47;22.67;;;8.50;82.70;;;;;;5112152;28;20766;-69
2021/04/29 04:32:53;;;;;;;27.93;22.37;;;8.60;82.90;;;;;;5112092;28;20301;-69
2021/04/29 04:35:19;;;;;;;30.27;24.53;;;8.60;83.70;;;;;;5112374;28;20320;-69
2021/04/29 04:37:46;;;;;;;32.40;27.43;;;8.60;83.80;;;;;;5111095;28;20055;-69
2021/04/29 04:40:13;;;;;;;36.17;27.97;;;8.60;83.90;;;;;;5111822;28;20044;-69
2021/04/29 04:42:39;;;;;;;33.70;28.93;;;8.60;83.90;;;;;;5112579;28;20358;-69
2021/04/29 04:45:07;;;;;;;35.07;29.13;;;8.60;84.50;;;;;;5111138;28;20301;-69
2021/04/29 04:47:34;;;;;;;36.83;29.70;;;8.60;84.20;;;;;;5112226;28;20343;-69
2021/04/29 04:49:59;;;;;;;34.80;29.87;;;8.50;84.30;;;;;;5110363;28;20289;-69
2021/04/29 04:52:26;;;;;;;38.20;30.77;;;8.60;84.40;;;;;;5110739;28;20054;-69
2021/04/29 04:54:52;;;;;;;40.13;32.03;;;8.60;84.20;;;;;;5111621;28;20123;-69
2021/04/29 04:57:19;;;;;;;42.37;31.67;;;8.60;84.80;;;;;;5111408;28;20301;-69
2021/04/29 04:59:45;;;;;;;41.70;31.20;;;8.60;84.40;;;;;;5110453;28;20313;-69
2021/04/29 05:02:11;;;;;;;39.30;29.90;;;8.60;84.80;;;;;;5111365;28;20293;-69
2021/04/29 05:04:37;;;;;;;36.80;30.83;;;8.60;85.00;;;;;;5111465;28;20463;-69
2021/04/29 05:07:06;;;;;;;36.43;30.27;;;8.60;84.80;;;;;;5110054;28;20841;-69
2021/04/29 05:09:32;;;;;;;39.77;29.57;;;8.60;85.00;;;;;;5111387;28;20043;-68
2021/04/29 05:11:58;;;;;;;37.80;29.57;;;8.70;85.30;;;;;;5110970;28;20297;-69
2021/04/29 05:14:25;;;;;;;38.07;29.70;;;8.70;85.30;;;;;;5110781;28;20307;-69
2021/04/29 05:16:51;;;;;;;34.43;27.30;;;8.70;84.70;;;;;;5108318;28;20457;-68
2021/04/29 05:19:16;;;;;;;32.80;27.70;;;8.80;84.60;;;;;;5110941;28;20350;-68
2021/04/29 05:21:42;;;;;;;32.30;27.97;;;8.80;84.70;;;;;;5110415;28;20082;-68
2021/04/29 05:24:08;;;;;;;35.63;27.53;;;9.00;84.60;;;;;;5111129;28;20047;-68
2021/04/29 05:26:34;;;;;;;37.13;27.57;;;9.00;84.20;;;;;;5111306;28;20056;-68
2021/04/29 05:29:00;;;;;;;35.87;27.27;;;9.20;84.30;;;;;;5109887;28;20739;-68
2021/04/29 05:31:26;;;;;;;31.10;26.73;;;9.40;83.90;;;;;;5111208;28;20048;-69
2021/04/29 05:33:51;;;;;;;32.07;26.80;;;9.70;83.20;;;;;;5110284;28;20043;-69
2021/04/29 05:36:17;;;;;;;31.33;25.77;;;9.90;82.30;;;;;;5110849;28;20055;-69
2021/04/29 05:38:43;;;;;;;31.50;25.57;;;9.90;81.70;;;;;;5111086;28;20040;-69
2021/04/29 05:41:08;;;;;;;34.10;26.47;;;9.80;81.70;;;;;;5110240;28;20408;-68
2021/04/29 05:43:34;;;;;;;33.67;28.50;;;9.70;81.80;;;;;;5111043;28;20036;-68
2021/04/29 05:46:00;;;;;;;28.83;24.93;;;9.60;82.10;;;;;;5110609;28;20527;-69
2021/04/29 05:48:26;;;;;;;32.33;25.97;;;9.50;82.10;;;;;;5110267;28;20048;-69
2021/04/29 05:50:52;;;;;;;31.17;26.17;;;9.50;82.10;;;;;;5108258;28;20320;-69
2021/04/29 05:53:18;;;;;;;31.00;25.40;;;9.50;82.10;;;;;;5110810;28;20039;-69
2021/04/29 05:55:43;;;;;;;31.33;25.13;;;9.50;82.10;;;;;;5109803;28;20449;-69
2021/04/29 05:58:09;;;;;;;30.27;24.50;;;9.50;82.20;;;;;;5110733;28;20143;-69
2021/04/29 06:00:36;;;;;;;29.30;24.87;;;9.50;82.00;;;;;;5110801;28;20400;-69
2021/04/29 06:03:02;;;;;;;36.10;26.93;;;9.60;81.90;;;;;;5109501;28;20488;-70
2021/04/29 06:05:28;;;;;;;35.57;27.33;;;9.70;81.90;;;;;;5111125;28;20333;-69
2021/04/29 06:07:55;;;;;;;33.03;25.70;;;9.70;81.80;;;;;;5110650;28;20293;-70
2021/04/29 06:10:21;;;;;;;30.63;27.07;;;9.80;81.60;;;;;;5110091;28;20778;-69
2021/04/29 06:12:47;;;;;;;34.93;27.37;;;9.90;81.40;;;;;;5110531;28;20297;-69
2021/04/29 06:15:13;;;;;;;32.00;27.33;;;10.00;81.10;;;;;;5110485;28;20342;-69
2021/04/29 06:17:38;;;;;;;30.43;26.90;;;10.20;80.80;;;;;;5111446;28;20044;-68
2021/04/29 06:20:05;;;;;;;30.43;25.13;;;10.50;80.30;;;;;;5114144;28;20044;-69
2021/04/29 06:22:30;;;;;;;34.20;24.90;;;10.60;79.70;;;;;;5114529;28;20097;-68
2021/04/29 06:24:56;;;;;;;32.50;24.73;;;10.70;79.00;;;;;;5113141;28;20289;-69
2021/04/29 06:27:21;;;;;;;31.50;25.63;;;10.80;78.50;;;;;;5114213;28;20047;-68
2021/04/29 06:29:47;;;;;;;27.17;23.27;;;10.80;78.10;;;;;;5113849;28;20054;-68
2021/04/29 06:32:12;;;;;;;29.60;24.90;;;10.80;78.10;;;;;;5112774;28;20051;-68
2021/04/29 06:34:39;;;;;;;32.10;26.07;;;10.70;77.90;;;;;;5114336;28;20480;-68
2021/04/29 06:37:04;;;;;;;28.77;25.77;;;10.70;78.00;;;;;;5112753;28;20584;-68
2021/04/29 06:39:30;;;;;;;27.33;24.40;;;10.70;77.80;;;;;;5114462;28;20309;-68
2021/04/29 06:41:57;;;;;;;29.07;25.63;;;10.80;77.90;;;;;;5114067;28;20101;-70
2021/04/29 06:44:23;;;;;;;26.67;23.97;;;10.90;77.60;;;;;;5113426;28;20050;-68
2021/04/29 06:46:49;;;;;;;27.30;24.30;;;11.00;77.30;;;;;;5113735;28;20043;-69
2021/04/29 06:49:15;;;;;;;25.57;22.90;;;11.10;76.90;;;;;;5114131;28;20117;-70
2021/04/29 06:51:41;;;;;;;26.87;23.60;;;11.10;76.40;;;;;;5113323;28;20044;-69
2021/04/29 06:54:07;;;;;;;27.43;24.23;;;11.10;76.10;;;;;;5113807;28;20500;-68
2021/04/29 06:56:33;;;;;;;27.17;24.20;;;11.10;75.90;;;;;;5114299;28;20048;-68
2021/04/29 06:58:59;;;;;;;29.80;24.03;;;11.10;75.80;;;;;;5112339;28;20495;-68
2021/04/29 07:01:24;;;;;;;27.73;23.93;;;11.10;75.40;;;;;;5113468;28;20440;-68
2021/04/29 07:03:50;;;;;;;27.50;24.57;;;11.10;75.20;;;;;;5113832;28;20480;-68
2021/04/29 07:06:16;;;;;;;28.93;23.33;;;11.10;75.00;;;;;;5113081;28;20043;-68
2021/04/29 07:08:41;;;;;;;30.80;23.13;;;11.10;74.80;;;;;;5113798;28;20409;-68
2021/04/29 07:11:07;;;;;;;25.90;23.07;;;11.10;74.70;;;;;;5113706;27;20464;-68
2021/04/29 07:13:33;;;;;;;26.53;23.70;;;11.10;74.50;;;;;;5113166;28;20060;-68
2021/04/29 07:15:58;;;;;;;27.87;24.30;;;11.20;74.40;;;;;;5113108;28;20047;-69
2021/04/29 07:18:24;;;;;;;27.90;25.10;;;11.20;74.50;;;;;;5113800;28;20048;-69
2021/04/29 07:20:54;;;;;;;28.07;23.67;;;11.20;74.40;;;;;;5112752;28;20128;-69
2021/04/29 07:23:19;;;;;;;25.93;23.27;;;11.10;74.30;;;;;;5113556;28;20423;-69
2021/04/29 07:25:46;;;;;;;24.40;21.83;;;11.10;74.30;;;;;;5113110;28;20056;-68
2021/04/29 07:28:11;;;;;;;24.63;22.10;;;11.10;74.10;;;;;;5112333;28;20048;-69
2021/04/29 07:30:39;;;;;;;28.17;22.97;;;11.00;73.90;;;;;;5113381;28;20044;-69
2021/04/29 07:33:05;;;;;;;24.17;21.77;;;11.00;73.90;;;;;;5112911;28;20446;-69
2021/04/29 07:35:31;;;;;;;25.63;21.80;;;11.00;74.00;;;;;;5112574;28;20112;-69
2021/04/29 07:37:57;;;;;;;24.60;22.00;;;11.00;74.10;;;;;;5112633;28;20420;-69
2021/04/29 07:40:22;;;;;;;25.80;22.83;;;10.90;74.20;;;;;;5112430;28;20320;-69
2021/04/29 07:42:48;;;;;;;24.47;21.90;;;10.90;74.40;;;;;;5112749;28;20546;-69
2021/04/29 07:45:14;;;;;;;28.73;22.97;;;10.90;74.30;;;;;;5112709;28;20388;-69
2021/04/29 07:47:40;;;;;;;26.07;23.40;;;10.90;74.20;;;;;;5112232;28;20477;-68
2021/04/29 07:50:07;;;;;;;27.30;23.90;;;10.90;74.40;;;;;;5112654;28;20056;-69
2021/04/29 07:52:34;;;;;;;26.43;23.73;;;10.90;74.50;;;;;;5112923;28;20325;-69
2021/04/29 07:55:00;;;;;;;25.57;22.33;;;10.90;74.50;;;;;;5111560;27;20289;-69
2021/04/29 07:57:25;;;;;;;26.23;23.30;;;10.90;74.60;;;;;;5112838;28;20296;-69
2021/04/29 07:59:51;;;;;;;29.03;23.57;;;10.90;74.60;;;;;;5112266;28;20050;-69
2021/04/29 08:02:17;;;;;;;26.87;22.50;;;10.90;74.50;;;;;;5111886;28;20472;-69
2021/04/29 08:04:42;;;;;;;27.23;23.03;;;10.90;74.60;;;;;;5112558;28;20051;-69
2021/04/29 08:07:08;;;;;;;26.73;23.93;;;10.90;74.80;;;;;;5111961;28;20492;-70
2021/04/29 08:09:33;;;;;;;27.67;24.53;;;10.90;75.20;;;;;;5111569;28;20330;-70
2021/04/29 08:11:59;;;;;;;28.77;24.60;;;10.80;75.80;;;;;;5111594;28;20047;-68
2021/04/29 08:14:25;;;;;;;27.17;23.77;;;10.80;76.10;;;;;;5112626;28;20082;-68
2021/04/29 08:16:50;;;;;;;27.03;24.10;;;10.70;76.50;;;;;;5111662;28;20046;-68
2021/04/29 08:19:16;;;;;;;28.37;25.37;;;10.70;76.70;;;;;;5112104;28;20052;-69
2021/04/29 08:21:42;;;;;;;28.40;25.33;;;10.70;77.10;;;;;;5112215;28;20051;-69
2021/04/29 08:24:08;;;;;;;31.63;26.27;;;10.60;77.40;;;;;;5111374;28;20104;-69
2021/04/29 08:26:33;;;;;;;29.13;26.10;;;10.60;77.90;;;;;;5112385;28;20051;-69
2021/04/29 08:29:00;;;;;;;32.80;27.40;;;10.60;78.60;;;;;;5111569;28;20051;-69
2021/04/29 08:31:26;;;;;;;32.07;28.60;;;10.60;79.60;;;;;;5111386;28;20044;-69
2021/04/29 08:33:53;;;;;;;29.43;26.20;;;10.60;79.90;;;;;;5111780;28;20426;-69
2021/04/29 08:36:19;;;;;;;32.67;29.20;;;10.60;80.20;;;;;;5111656;28;20044;-69
2021/04/29 08:38:45;;;;;;;34.30;30.80;;;10.60;80.50;;;;;;5111088;28;20746;-69
2021/04/29 08:41:10;;;;;;;33.43;29.93;;;10.60;81.10;;;;;;5111309;28;20408;-69
2021/04/29 08:43:37;;;;;;;32.60;29.10;;;10.60;81.70;;;;;;5111977;28;20435;-69
2021/04/29 08:46:05;;;;;;;29.10;25.97;;;10.60;82.00;;;;;;5110862;28;20044;-69
2021/04/29 08:48:31;;;;;;;31.63;28.13;;;10.60;81.60;;;;;;5111991;28;20100;-69
2021/04/29 08:50:58;;;;;;;34.30;30.70;;;10.60;81.30;;;;;;5110774;28;20097;-69
2021/04/29 08:53:24;;;;;;;31.27;28.23;;;10.60;81.70;;;;;;5111962;28;20297;-69
2021/04/29 08:55:50;;;;;;;32.80;28.27;;;10.60;82.80;;;;;;5111608;28;20800;-68
2021/04/29 08:58:16;;;;;;;36.30;29.13;;;10.50;82.60;;;;;;5110757;28;20298;-69
2021/04/29 09:00:42;;;;;;;31.90;28.67;;;10.50;82.70;;;;;;5111679;28;20359;-69
2021/04/29 09:03:08;;;;;;;32.37;28.90;;;10.50;82.90;;;;;;5111795;28;20050;-68
2021/04/29 09:05:34;;;;;;;33.50;29.80;;;10.40;82.60;;;;;;5111110;28;20055;-69
2021/04/29 09:08:05;;;;;;;37.57;32.93;;;10.30;84.40;;;;;;5111039;28;20116;-69
2021/04/29 09:10:42;;;;;;;34.08;30.60;;;10.30;84.20;;;;;;5111548;28;20484;-69
2021/04/29 09:13:34;;;;;;;31.67;28.37;;;10.20;84.60;;;;;;5110680;28;20043;-69
2021/04/29 09:16:06;;;;;;;34.10;30.30;;;10.20;84.80;;;;;;5108220;28;20331;-69
2021/04/29 09:18:32;;;;;;;33.23;28.87;;;10.20;84.20;;;;;;5111659;28;20900;-69
2021/04/29 09:21:08;;;;;;;34.20;29.40;;;10.20;84.30;;;;;;5110673;28;20359;-69
2021/04/29 09:23:40;;;;;;;33.13;29.63;;;10.20;84.30;;;;;;5111894;28;20346;-69
2021/04/29 09:26:07;;;;;;;35.78;28.10;;;10.20;84.10;;;;;;5110432;28;20366;-69
2021/04/29 09:28:37;;;;;;;31.47;27.60;;;10.20;84.00;;;;;;5111774;28;20047;-69
2021/04/29 09:31:04;;;;;;;33.93;30.30;;;10.20;83.80;;;;;;5111115;28;20304;-69
2021/04/29 09:33:36;;;;;;;28.80;25.23;;;10.20;83.90;;;;;;5110758;28;20793;-69
2021/04/29 09:36:02;;;;;;;36.83;31.63;;;10.20;84.30;;;;;;5110739;28;20800;-69
2021/04/29 09:38:52;;;;;;;34.77;30.07;;;10.20;84.50;;;;;;5111642;28;20122;-69
2021/04/29 09:41:25;;;;;;;34.07;28.47;;;10.20;85.30;;;;;;5110438;28;20358;-69
2021/04/29 09:44:03;;;;;;;36.67;31.93;;;10.20;85.30;;;;;;5111074;28;20657;-69
2021/04/29 09:47:03;;;;;;;35.03;31.27;;;10.20;85.50;;;;;;5111466;28;20071;-69
2021/04/29 09:49:35;;;;;;;32.27;28.83;;;10.20;85.90;;;;;;5099977;28;20380;-69
2021/04/29 09:52:17;;;;;;;31.40;28.00;;;10.20;85.50;;;;;;5111122;28;20774;-69
2021/04/29 09:54:43;;;;;;;33.60;30.13;;;10.20;85.70;;;;;;5114703;28;20691;-69
2021/04/29 09:57:14;;;;;;;36.43;28.47;;;10.10;85.90;;;;;;5115091;28;20416;-69
2021/04/29 09:59:47;;;;;;;35.27;30.77;;;10.10;86.10;;;;;;5115263;28;20362;-69
2021/04/29 10:02:15;;;;;;;32.83;29.07;;;10.10;86.30;;;;;;5114176;28;20354;-69
2021/04/29 10:04:42;;;;;;;32.37;28.90;;;10.10;86.30;;;;;;5114762;28;20289;-69
2021/04/29 10:07:09;;;;;;;34.17;29.87;;;10.10;86.10;;;;;;5115022;28;20289;-69
2021/04/29 10:09:35;;;;;;;33.03;29.63;;;10.20;86.40;;;;;;5114392;28;20293;-69
2021/04/29 10:12:15;;;;;;;34.97;31.30;;;10.10;86.20;;;;;;5114505;28;20362;-69
2021/04/29 10:14:46;;;;;;;36.17;32.07;;;10.10;86.50;;;;;;5113858;28;20793;-69
2021/04/29 10:17:14;;;;;;;36.10;31.95;;;10.00;87.10;;;;;;5113897;28;20381;-69
2021/04/29 10:19:43;;;;;;;40.03;33.50;;;9.90;86.60;;;;;;5114282;28;20541;-69
2021/04/29 10:22:10;;;;;;;42.30;35.07;;;9.90;87.00;;;;;;5113513;28;20800;-68
2021/04/29 10:24:40;;;;;;;38.07;33.13;;;9.90;87.60;;;;;;5114754;28;20325;-68
2021/04/29 10:27:08;;;;;;;38.67;33.47;;;9.90;87.40;;;;;;5114364;28;20301;-68
2021/04/29 10:29:38;;;;;;;38.58;34.47;;;9.90;87.80;;;;;;5113652;28;20670;-68
2021/04/29 10:32:09;;;;;;;53.23;46.17;;;9.80;88.10;;;;;;5114203;28;20047;-67
2021/04/29 10:34:49;;;;;;;49.80;40.67;;;9.80;88.70;;;;;;5114662;28;20290;-67
2021/04/29 10:37:19;;;;;;;45.80;40.13;;;9.80;89.00;;;;;;5113206;28;20055;-67
2021/04/29 10:40:03;;;;;;;44.67;39.80;;;9.80;89.20;;;;;;5114227;28;20340;-67
2021/04/29 10:42:30;;;;;;;39.87;35.20;;;9.80;89.40;;;;;;5114508;28;20297;-67
2021/04/29 10:45:08;;;;;;;45.80;37.53;;;9.90;89.50;;;;;;5112934;28;20836;-67
2021/04/29 10:47:34;;;;;;;47.97;41.27;;;9.90;89.60;;;;;;5114434;28;20653;-67
2021/04/29 10:50:14;;;;;;;48.07;38.43;;;10.00;89.90;;;;;;5113540;28;20324;-67
2021/04/29 10:52:53;;;;;;;48.53;41.27;;;9.90;90.00;;;;;;5113925;28;20647;-68
2021/04/29 10:55:26;;;;;;;49.83;40.07;;;10.00;90.20;;;;;;5113978;28;20297;-67
2021/04/29 10:57:52;;;;;;;44.80;40.03;;;10.00;90.80;;;;;;5113078;28;20386;-67
2021/04/29 11:00:20;;;;;;;52.87;43.40;;;10.00;90.70;;;;;;5113350;28;20341;-68
2021/04/29 11:03:03;;;;;;;54.00;41.87;;;10.00;90.70;;;;;;5112020;28;20054;-67
2021/04/29 11:05:31;;;;;;;49.87;42.80;;;10.00;90.80;;;;;;5113452;28;20285;-67
2021/04/29 11:08:05;;;;;;;50.17;42.87;;;10.00;90.80;;;;;;5113661;28;20638;-67
2021/04/29 11:10:37;;;;;;;49.70;44.10;;;10.00;90.70;;;;;;5113810;28;20293;-67
2021/04/29 11:13:03;;;;;;;46.83;41.72;;;10.00;90.70;;;;;;5112606;28;20297;-67
2021/04/29 11:15:30;;;;;;;51.33;45.73;;;10.10;90.80;;;;;;5113560;28;20060;-67
2021/04/29 11:18:07;;;;;;;52.70;42.83;;;10.10;90.80;;;;;;5113364;28;20377;-67
2021/04/29 11:20:42;;;;;;;47.33;40.53;;;10.20;90.80;;;;;;5113018;28;20071;-67
2021/04/29 11:23:07;;;;;;;50.53;42.83;;;10.30;90.90;;;;;;5113518;28;20677;-67
2021/04/29 11:25:33;;;;;;;49.47;43.47;;;10.30;90.80;;;;;;5112941;28;20396;-67
2021/04/29 11:27:59;;;;;;;50.73;40.67;;;10.30;90.80;;;;;;5112740;28;20059;-67
2021/04/29 11:30:24;;;;;;;47.13;42.27;;;10.30;90.80;;;;;;5113452;28;20097;-67
2021/04/29 11:33:02;;;;;;;36.60;32.80;;;10.40;90.90;;;;;;5112575;28;20082;-67
2021/04/29 11:35:29;;;;;;;49.23;43.60;;;10.40;90.80;;;;;;5113692;28;20048;-67
2021/04/29 11:37:56;;;;;;;42.60;38.00;;;10.40;90.80;;;;;;5112498;28;20302;-67
2021/04/29 11:40:24;;;;;;;44.83;39.93;;;10.40;90.80;;;;;;5112490;28;20356;-67
2021/04/29 11:42:53;;;;;;;46.27;40.50;;;10.50;90.80;;;;;;5112852;28;20050;-67
2021/04/29 11:45:25;;;;;;;54.63;42.37;;;10.50;90.80;;;;;;5113026;28;20303;-66
2021/04/29 11:47:56;;;;;;;;;;;10.50;90.90;;;;;;5112571;28;20043;-66
2021/04/29 11:50:26;;;;;;;40.47;36.23;;;10.50;91.10;;;;;;5113374;28;20014;-66
2021/04/29 11:53:09;;;;;;;43.10;38.53;;;10.50;90.70;;;;;;5112643;28;20309;-66
2021/04/29 11:55:40;;;;;;;43.37;38.83;;;10.50;90.80;;;;;;5112482;28;20047;-66
2021/04/29 11:58:09;;;;;;;45.95;40.28;;;10.50;90.80;;;;;;5111573;28;20092;-67
2021/04/29 12:00:38;;;;;;;45.87;40.97;;;10.50;90.80;;;;;;5112453;28;20142;-66
2021/04/29 12:03:08;;;;;;;48.10;42.27;;;10.40;90.90;;;;;;5112088;28;20739;-67
2021/04/29 12:05:45;;;;;;;50.07;41.43;;;10.40;90.90;;;;;;5113359;28;20297;-66
2021/04/29 12:08:15;;;;;;;44.00;37.10;;;10.40;91.00;;;;;;5111293;28;20354;-66
2021/04/29 12:10:41;;;;;;;50.27;42.97;;;10.40;91.10;;;;;;5112711;28;20293;-66
2021/04/29 12:13:08;;;;;;;45.03;40.27;;;10.30;91.10;;;;;;5112432;28;20096;-66
2021/04/29 12:15:33;;;;;;;46.80;41.73;;;10.30;91.10;;;;;;5111094;28;20297;-67
2021/04/29 12:17:59;;;;;;;49.70;44.23;;;10.30;91.20;;;;;;5111909;28;20358;-67
2021/04/29 12:20:25;;;;;;;50.67;44.27;;;10.30;91.20;;;;;;5112744;28;20052;-67
2021/04/29 12:22:51;;;;;;;41.93;36.40;;;10.30;91.30;;;;;;5111677;28;20040;-67
2021/04/29 12:25:21;;;;;;;49.13;43.30;;;10.20;91.40;;;;;;5112109;28;20335;-67
2021/04/29 12:27:46;;;;;;;47.33;41.80;;;10.20;91.40;;;;;;5112255;28;20055;-67
2021/04/29 12:30:14;;;;;;;51.13;43.03;;;10.20;91.50;;;;;;5111126;28;20800;-67
2021/04/29 12:32:45;;;;;;;46.57;40.33;;;10.20;91.50;;;;;;5112213;28;20329;-67
2021/04/29 12:35:14;;;;;;;43.83;37.43;;;10.10;91.50;;;;;;5112064;28;20332;-67
2021/04/29 12:37:50;;;;;;;40.30;36.00;;;10.00;91.50;;;;;;5111101;28;20893;-67